sensor_id;sensor_type;location;lat;lon;timestamp;P1;durP1;ratioP1;P2;durP2;ratioP2
3777;SDS011;1904;50.076;8.660;2023-08-24T00:01:10;39.63;;;5.80;;
3777;SDS011;1904;50.076;8.660;2023-08-24T00:03:39;38.13;;;5.70;;
3777;SDS011;1904;50.076;8.660;2023-08-24T00:06:05;42.20;;;5.90;;
3777;SDS011;1904;50.076;8.660;2023-08-24T00:08:31;38.67;;;5.70;;
3777;SDS011;1904;50.076;8.660;2023-08-24T00:10:57;40.20;;;6.00;;
3777;SDS011;1904;50.076;8.660;2023-08-24T00:13:23;46.67;;;6.47;;
3777;SDS011;1904;50.076;8.660;2023-08-24T00:15:50;41.97;;;6.13;;
3777;SDS011;1904;50.076;8.660;2023-08-24T00:18:17;38.87;;;6.30;;
3777;SDS011;1904;50.076;8.660;2023-08-24T00:20:44;40.80;;;6.20;;
3777;SDS011;1904;50.076;8.660;2023-08-24T00:23:10;42.93;;;6.70;;
3777;SDS011;1904;50.076;8.660;2023-08-24T00:25:35;43.17;;;6.70;;
3777;SDS011;1904;50.076;8.660;2023-08-24T00:28:01;39.00;;;6.67;;
3777;SDS011;1904;50.076;8.660;2023-08-24T00:30:32;45.70;;;6.83;;
3777;SDS011;1904;50.076;8.660;2023-08-24T00:33:02;39.97;;;6.83;;
3777;SDS011;1904;50.076;8.660;2023-08-24T00:35:32;39.20;;;6.87;;
3777;SDS011;1904;50.076;8.660;2023-08-24T00:40:56;46.33;;;6.80;;
3777;SDS011;1904;50.076;8.660;2023-08-24T00:43:24;46.10;;;7.77;;
3777;SDS011;1904;50.076;8.660;2023-08-24T00:45:51;43.60;;;7.57;;
3777;SDS011;1904;50.076;8.660;2023-08-24T00:51:08;52.00;;;7.63;;
3777;SDS011;1904;50.076;8.660;2023-08-24T00:53:38;40.27;;;6.97;;
3777;SDS011;1904;50.076;8.660;2023-08-24T00:58:56;50.97;;;7.10;;
3777;SDS011;1904;50.076;8.660;2023-08-24T01:01:39;47.07;;;7.90;;
3777;SDS011;1904;50.076;8.660;2023-08-24T01:04:14;47.73;;;7.97;;
3777;SDS011;1904;50.076;8.660;2023-08-24T01:06:40;42.80;;;8.13;;
3777;SDS011;1904;50.076;8.660;2023-08-24T01:09:06;44.20;;;8.73;;
3777;SDS011;1904;50.076;8.660;2023-08-24T01:17:23;54.57;;;8.70;;
3777;SDS011;1904;50.076;8.660;2023-08-24T01:19:56;45.40;;;8.60;;
3777;SDS011;1904;50.076;8.660;2023-08-24T01:28:20;45.60;;;8.57;;
3777;SDS011;1904;50.076;8.660;2023-08-24T01:30:47;45.57;;;8.37;;
3777;SDS011;1904;50.076;8.660;2023-08-24T01:33:14;47.90;;;8.70;;
3777;SDS011;1904;50.076;8.660;2023-08-24T01:35:44;49.60;;;9.27;;
3777;SDS011;1904;50.076;8.660;2023-08-24T01:38:09;46.07;;;8.80;;
3777;SDS011;1904;50.076;8.660;2023-08-24T01:43:56;44.83;;;9.27;;
3777;SDS011;1904;50.076;8.660;2023-08-24T01:46:26;43.83;;;9.20;;
3777;SDS011;1904;50.076;8.660;2023-08-24T01:48:56;46.70;;;9.20;;
3777;SDS011;1904;50.076;8.660;2023-08-24T01:54:26;44.93;;;9.67;;
3777;SDS011;1904;50.076;8.660;2023-08-24T01:57:04;47.60;;;9.43;;
3777;SDS011;1904;50.076;8.660;2023-08-24T02:02:16;58.53;;;10.90;;
3777;SDS011;1904;50.076;8.660;2023-08-24T02:04:42;46.10;;;10.43;;
3777;SDS011;1904;50.076;8.660;2023-08-24T02:07:08;51.33;;;10.30;;
3777;SDS011;1904;50.076;8.660;2023-08-24T02:09:50;49.70;;;10.37;;
3777;SDS011;1904;50.076;8.660;2023-08-24T02:12:26;46.20;;;9.47;;
3777;SDS011;1904;50.076;8.660;2023-08-24T02:14:56;43.03;;;9.90;;
3777;SDS011;1904;50.076;8.660;2023-08-24T02:17:32;50.27;;;10.27;;
3777;SDS011;1904;50.076;8.660;2023-08-24T02:20:02;46.10;;;9.43;;
3777;SDS011;1904;50.076;8.660;2023-08-24T02:22:38;50.80;;;10.10;;
3777;SDS011;1904;50.076;8.660;2023-08-24T02:25:20;51.27;;;9.83;;
3777;SDS011;1904;50.076;8.660;2023-08-24T02:27:46;50.83;;;10.77;;
3777;SDS011;1904;50.076;8.660;2023-08-24T02:30:13;43.30;;;10.23;;
3777;SDS011;1904;50.076;8.660;2023-08-24T02:32:44;50.63;;;10.13;;
3777;SDS011;1904;50.076;8.660;2023-08-24T02:41:09;42.87;;;10.10;;
3777;SDS011;1904;50.076;8.660;2023-08-24T02:43:50;48.67;;;10.13;;
3777;SDS011;1904;50.076;8.660;2023-08-24T02:46:26;53.03;;;9.40;;
3777;SDS011;1904;50.076;8.660;2023-08-24T02:51:39;45.90;;;8.77;;
3777;SDS011;1904;50.076;8.660;2023-08-24T02:54:14;43.70;;;8.90;;
3777;SDS011;1904;50.076;8.660;2023-08-24T02:56:40;43.30;;;9.30;;
3777;SDS011;1904;50.076;8.660;2023-08-24T02:59:05;42.60;;;8.80;;
3777;SDS011;1904;50.076;8.660;2023-08-24T03:01:32;46.20;;;8.63;;
3777;SDS011;1904;50.076;8.660;2023-08-24T03:04:02;48.67;;;9.30;;
3777;SDS011;1904;50.076;8.660;2023-08-24T03:06:29;43.80;;;8.50;;
3777;SDS011;1904;50.076;8.660;2023-08-24T03:12:20;52.10;;;8.83;;
3777;SDS011;1904;50.076;8.660;2023-08-24T03:14:53;43.50;;;8.40;;
3777;SDS011;1904;50.076;8.660;2023-08-24T03:19:58;52.80;;;9.60;;
3777;SDS011;1904;50.076;8.660;2023-08-24T03:22:32;43.27;;;8.73;;
3777;SDS011;1904;50.076;8.660;2023-08-24T03:24:58;43.77;;;8.63;;
3777;SDS011;1904;50.076;8.660;2023-08-24T03:27:32;44.97;;;9.00;;
3777;SDS011;1904;50.076;8.660;2023-08-24T03:33:08;40.77;;;8.90;;
3777;SDS011;1904;50.076;8.660;2023-08-24T03:35:50;45.20;;;9.40;;
3777;SDS011;1904;50.076;8.660;2023-08-24T03:38:27;45.53;;;9.30;;
3777;SDS011;1904;50.076;8.660;2023-08-24T03:46:44;40.30;;;8.00;;
3777;SDS011;1904;50.076;8.660;2023-08-24T03:49:20;44.63;;;8.60;;
3777;SDS011;1904;50.076;8.660;2023-08-24T03:51:56;43.60;;;8.23;;
3777;SDS011;1904;50.076;8.660;2023-08-24T03:54:26;47.23;;;8.80;;
3777;SDS011;1904;50.076;8.660;2023-08-24T04:02:31;37.87;;;6.90;;
3777;SDS011;1904;50.076;8.660;2023-08-24T04:05:02;41.27;;;7.83;;
3777;SDS011;1904;50.076;8.660;2023-08-24T04:07:32;40.80;;;7.63;;
3777;SDS011;1904;50.076;8.660;2023-08-24T04:10:02;38.93;;;7.43;;
3777;SDS011;1904;50.076;8.660;2023-08-24T04:15:15;41.47;;;6.50;;
3777;SDS011;1904;50.076;8.660;2023-08-24T04:17:44;36.23;;;5.13;;
3777;SDS011;1904;50.076;8.660;2023-08-24T04:20:14;37.43;;;5.50;;
3777;SDS011;1904;50.076;8.660;2023-08-24T04:22:41;41.37;;;5.50;;
3777;SDS011;1904;50.076;8.660;2023-08-24T04:25:14;35.10;;;5.13;;
3777;SDS011;1904;50.076;8.660;2023-08-24T04:27:50;40.57;;;5.53;;
3777;SDS011;1904;50.076;8.660;2023-08-24T04:30:26;38.53;;;5.20;;
3777;SDS011;1904;50.076;8.660;2023-08-24T04:32:52;39.30;;;5.47;;
3777;SDS011;1904;50.076;8.660;2023-08-24T04:35:20;40.53;;;5.27;;
3777;SDS011;1904;50.076;8.660;2023-08-24T04:37:50;35.20;;;5.00;;
3777;SDS011;1904;50.076;8.660;2023-08-24T04:40:26;35.83;;;5.00;;
3777;SDS011;1904;50.076;8.660;2023-08-24T04:42:56;42.07;;;5.33;;
3777;SDS011;1904;50.076;8.660;2023-08-24T04:48:34;43.03;;;4.80;;
3777;SDS011;1904;50.076;8.660;2023-08-24T05:00:26;38.23;;;4.70;;
3777;SDS011;1904;50.076;8.660;2023-08-24T05:06:14;41.00;;;5.37;;
3777;SDS011;1904;50.076;8.660;2023-08-24T05:08:44;37.80;;;5.07;;
3777;SDS011;1904;50.076;8.660;2023-08-24T05:11:14;35.93;;;4.60;;
3777;SDS011;1904;50.076;8.660;2023-08-24T05:13:50;37.67;;;4.50;;
3777;SDS011;1904;50.076;8.660;2023-08-24T05:22:08;38.47;;;4.50;;
3777;SDS011;1904;50.076;8.660;2023-08-24T05:24:44;34.87;;;4.13;;
3777;SDS011;1904;50.076;8.660;2023-08-24T05:27:20;37.53;;;4.40;;
3777;SDS011;1904;50.076;8.660;2023-08-24T05:29:50;34.00;;;4.10;;
3777;SDS011;1904;50.076;8.660;2023-08-24T05:35:44;35.93;;;4.57;;
3777;SDS011;1904;50.076;8.660;2023-08-24T05:41:20;36.10;;;3.90;;
3777;SDS011;1904;50.076;8.660;2023-08-24T05:43:50;35.60;;;3.93;;
3777;SDS011;1904;50.076;8.660;2023-08-24T05:49:14;37.10;;;4.30;;
3777;SDS011;1904;50.076;8.660;2023-08-24T05:51:50;34.83;;;4.33;;
3777;SDS011;1904;50.076;8.660;2023-08-24T05:57:20;34.27;;;4.20;;
3777;SDS011;1904;50.076;8.660;2023-08-24T05:59:49;34.23;;;3.93;;
3777;SDS011;1904;50.076;8.660;2023-08-24T06:02:15;33.77;;;4.17;;
3777;SDS011;1904;50.076;8.660;2023-08-24T06:04:44;35.97;;;4.50;;
3777;SDS011;1904;50.076;8.660;2023-08-24T06:10:20;37.17;;;3.90;;
3777;SDS011;1904;50.076;8.660;2023-08-24T06:12:47;36.27;;;4.40;;
3777;SDS011;1904;50.076;8.660;2023-08-24T06:15:20;37.50;;;4.70;;
3777;SDS011;1904;50.076;8.660;2023-08-24T06:17:50;39.80;;;3.83;;
3777;SDS011;1904;50.076;8.660;2023-08-24T06:20:17;34.07;;;4.10;;
3777;SDS011;1904;50.076;8.660;2023-08-24T06:22:44;51.83;;;4.33;;
3777;SDS011;1904;50.076;8.660;2023-08-24T06:25:14;38.50;;;4.10;;
3777;SDS011;1904;50.076;8.660;2023-08-24T06:27:43;40.00;;;3.93;;
3777;SDS011;1904;50.076;8.660;2023-08-24T06:30:20;35.70;;;4.10;;
3777;SDS011;1904;50.076;8.660;2023-08-24T06:33:03;33.90;;;3.63;;
3777;SDS011;1904;50.076;8.660;2023-08-24T06:35:38;34.23;;;3.90;;
3777;SDS011;1904;50.076;8.660;2023-08-24T06:38:06;35.70;;;4.30;;
3777;SDS011;1904;50.076;8.660;2023-08-24T06:40:44;37.73;;;3.80;;
3777;SDS011;1904;50.076;8.660;2023-08-24T06:43:14;37.00;;;4.13;;
3777;SDS011;1904;50.076;8.660;2023-08-24T06:48:50;41.53;;;4.50;;
3777;SDS011;1904;50.076;8.660;2023-08-24T06:51:20;36.37;;;3.70;;
3777;SDS011;1904;50.076;8.660;2023-08-24T06:59:50;44.03;;;4.80;;
3777;SDS011;1904;50.076;8.660;2023-08-24T07:05:26;35.77;;;4.13;;
3777;SDS011;1904;50.076;8.660;2023-08-24T07:11:14;36.93;;;3.53;;
3777;SDS011;1904;50.076;8.660;2023-08-24T07:13:50;38.23;;;3.70;;
3777;SDS011;1904;50.076;8.660;2023-08-24T07:16:20;36.93;;;4.40;;
3777;SDS011;1904;50.076;8.660;2023-08-24T07:18:46;40.70;;;4.27;;
3777;SDS011;1904;50.076;8.660;2023-08-24T07:30:20;36.70;;;3.90;;
3777;SDS011;1904;50.076;8.660;2023-08-24T07:32:50;34.67;;;3.73;;
3777;SDS011;1904;50.076;8.660;2023-08-24T07:35:20;35.50;;;3.90;;
3777;SDS011;1904;50.076;8.660;2023-08-24T07:37:50;33.33;;;4.10;;
3777;SDS011;1904;50.076;8.660;2023-08-24T07:40:32;39.50;;;4.13;;
3777;SDS011;1904;50.076;8.660;2023-08-24T07:43:08;37.07;;;3.83;;
3777;SDS011;1904;50.076;8.660;2023-08-24T07:45:38;33.13;;;3.70;;
3777;SDS011;1904;50.076;8.660;2023-08-24T07:48:08;39.00;;;4.13;;
3777;SDS011;1904;50.076;8.660;2023-08-24T07:50:38;38.30;;;4.57;;
3777;SDS011;1904;50.076;8.660;2023-08-24T07:59:20;40.10;;;4.17;;
3777;SDS011;1904;50.076;8.660;2023-08-24T08:01:50;33.50;;;3.80;;
3777;SDS011;1904;50.076;8.660;2023-08-24T08:04:20;34.30;;;3.90;;
3777;SDS011;1904;50.076;8.660;2023-08-24T08:09:50;35.03;;;4.27;;
3777;SDS011;1904;50.076;8.660;2023-08-24T08:15:15;35.70;;;3.77;;
3777;SDS011;1904;50.076;8.660;2023-08-24T08:17:51;37.33;;;4.03;;
3777;SDS011;1904;50.076;8.660;2023-08-24T08:20:20;36.40;;;4.00;;
3777;SDS011;1904;50.076;8.660;2023-08-24T08:22:50;36.97;;;4.17;;
3777;SDS011;1904;50.076;8.660;2023-08-24T08:28:44;36.93;;;3.80;;
3777;SDS011;1904;50.076;8.660;2023-08-24T08:31:14;36.30;;;3.60;;
3777;SDS011;1904;50.076;8.660;2023-08-24T08:33:51;35.30;;;3.93;;
3777;SDS011;1904;50.076;8.660;2023-08-24T08:36:16;32.47;;;3.87;;
3777;SDS011;1904;50.076;8.660;2023-08-24T08:38:50;40.87;;;4.60;;
3777;SDS011;1904;50.076;8.660;2023-08-24T08:41:22;36.43;;;3.73;;
3777;SDS011;1904;50.076;8.660;2023-08-24T08:44:08;38.53;;;4.23;;
3777;SDS011;1904;50.076;8.660;2023-08-24T08:46:44;35.70;;;3.93;;
3777;SDS011;1904;50.076;8.660;2023-08-24T08:49:14;36.83;;;3.90;;
3777;SDS011;1904;50.076;8.660;2023-08-24T08:51:42;37.17;;;3.30;;
3777;SDS011;1904;50.076;8.660;2023-08-24T08:54:20;36.47;;;3.97;;
3777;SDS011;1904;50.076;8.660;2023-08-24T08:56:50;34.30;;;3.90;;
3777;SDS011;1904;50.076;8.660;2023-08-24T08:59:20;39.10;;;4.20;;
3777;SDS011;1904;50.076;8.660;2023-08-24T09:01:50;34.57;;;4.00;;
3777;SDS011;1904;50.076;8.660;2023-08-24T09:04:20;37.40;;;3.63;;
3777;SDS011;1904;50.076;8.660;2023-08-24T09:06:50;44.50;;;4.53;;
3777;SDS011;1904;50.076;8.660;2023-08-24T09:09:22;34.10;;;3.90;;
3777;SDS011;1904;50.076;8.660;2023-08-24T09:11:51;37.67;;;4.13;;
3777;SDS011;1904;50.076;8.660;2023-08-24T09:14:17;36.10;;;4.10;;
3777;SDS011;1904;50.076;8.660;2023-08-24T09:16:50;37.60;;;3.90;;
3777;SDS011;1904;50.076;8.660;2023-08-24T09:19:32;38.50;;;3.53;;
3777;SDS011;1904;50.076;8.660;2023-08-24T09:25:02;35.47;;;3.83;;
3777;SDS011;1904;50.076;8.660;2023-08-24T09:30:44;36.50;;;3.77;;
3777;SDS011;1904;50.076;8.660;2023-08-24T09:33:14;34.10;;;3.73;;
3777;SDS011;1904;50.076;8.660;2023-08-24T09:35:40;33.17;;;3.87;;
3777;SDS011;1904;50.076;8.660;2023-08-24T09:38:21;38.03;;;4.13;;
3777;SDS011;1904;50.076;8.660;2023-08-24T09:41:02;37.67;;;3.60;;
3777;SDS011;1904;50.076;8.660;2023-08-24T09:43:39;33.93;;;4.10;;
3777;SDS011;1904;50.076;8.660;2023-08-24T09:46:08;41.33;;;3.87;;
3777;SDS011;1904;50.076;8.660;2023-08-24T10:06:20;33.57;;;3.63;;
3777;SDS011;1904;50.076;8.660;2023-08-24T10:11:58;40.20;;;4.67;;
3777;SDS011;1904;50.076;8.660;2023-08-24T10:17:14;30.40;;;3.40;;
3777;SDS011;1904;50.076;8.660;2023-08-24T10:19:56;35.90;;;4.67;;
3777;SDS011;1904;50.076;8.660;2023-08-24T10:22:33;31.80;;;4.30;;
3777;SDS011;1904;50.076;8.660;2023-08-24T10:25:15;36.83;;;4.13;;
3777;SDS011;1904;50.076;8.660;2023-08-24T10:30:50;32.10;;;4.07;;
3777;SDS011;1904;50.076;8.660;2023-08-24T10:33:17;33.60;;;4.00;;
3777;SDS011;1904;50.076;8.660;2023-08-24T10:44:39;31.17;;;3.50;;
3777;SDS011;1904;50.076;8.660;2023-08-24T10:50:08;31.63;;;3.80;;
3777;SDS011;1904;50.076;8.660;2023-08-24T10:55:23;30.00;;;3.80;;
3777;SDS011;1904;50.076;8.660;2023-08-24T11:01:20;32.30;;;4.17;;
3777;SDS011;1904;50.076;8.660;2023-08-24T11:03:56;28.47;;;3.50;;
3777;SDS011;1904;50.076;8.660;2023-08-24T11:06:50;31.10;;;3.87;;
3777;SDS011;1904;50.076;8.660;2023-08-24T11:09:21;29.00;;;3.50;;
3777;SDS011;1904;50.076;8.660;2023-08-24T11:14:56;28.30;;;3.30;;
3777;SDS011;1904;50.076;8.660;2023-08-24T11:17:29;28.33;;;3.50;;
3777;SDS011;1904;50.076;8.660;2023-08-24T11:20:14;29.93;;;3.70;;
3777;SDS011;1904;50.076;8.660;2023-08-24T11:22:52;27.30;;;3.37;;
3777;SDS011;1904;50.076;8.660;2023-08-24T11:25:38;28.60;;;3.50;;
3777;SDS011;1904;50.076;8.660;2023-08-24T11:28:04;32.73;;;3.80;;
3777;SDS011;1904;50.076;8.660;2023-08-24T11:33:35;32.13;;;3.43;;
3777;SDS011;1904;50.076;8.660;2023-08-24T11:36:08;28.17;;;3.47;;
3777;SDS011;1904;50.076;8.660;2023-08-24T11:38:55;28.27;;;3.40;;
3777;SDS011;1904;50.076;8.660;2023-08-24T11:47:26;32.90;;;3.50;;
3777;SDS011;1904;50.076;8.660;2023-08-24T11:50:02;30.53;;;3.60;;
3777;SDS011;1904;50.076;8.660;2023-08-24T11:52:29;28.70;;;3.20;;
3777;SDS011;1904;50.076;8.660;2023-08-24T11:54:58;27.67;;;2.90;;
3777;SDS011;1904;50.076;8.660;2023-08-24T11:57:26;27.03;;;2.90;;
3777;SDS011;1904;50.076;8.660;2023-08-24T11:59:56;27.20;;;2.60;;
3777;SDS011;1904;50.076;8.660;2023-08-24T12:02:27;28.70;;;3.27;;
3777;SDS011;1904;50.076;8.660;2023-08-24T12:04:57;29.87;;;3.43;;
3777;SDS011;1904;50.076;8.660;2023-08-24T12:07:27;33.77;;;3.60;;
3777;SDS011;1904;50.076;8.660;2023-08-24T12:09:53;38.67;;;3.40;;
3777;SDS011;1904;50.076;8.660;2023-08-24T12:12:32;34.50;;;3.20;;
3777;SDS011;1904;50.076;8.660;2023-08-24T12:14:58;28.60;;;3.13;;
3777;SDS011;1904;50.076;8.660;2023-08-24T12:17:42;26.23;;;3.00;;
3777;SDS011;1904;50.076;8.660;2023-08-24T12:20:21;34.43;;;4.80;;
3777;SDS011;1904;50.076;8.660;2023-08-24T12:22:54;34.83;;;4.03;;
3777;SDS011;1904;50.076;8.660;2023-08-24T12:33:26;28.90;;;3.20;;
3777;SDS011;1904;50.076;8.660;2023-08-24T12:35:57;27.30;;;3.07;;
3777;SDS011;1904;50.076;8.660;2023-08-24T12:38:26;31.33;;;3.07;;
3777;SDS011;1904;50.076;8.660;2023-08-24T12:43:40;38.20;;;6.97;;
3777;SDS011;1904;50.076;8.660;2023-08-24T12:46:08;31.70;;;3.70;;
3777;SDS011;1904;50.076;8.660;2023-08-24T12:48:34;36.20;;;3.43;;
3777;SDS011;1904;50.076;8.660;2023-08-24T12:51:08;28.57;;;3.37;;
3777;SDS011;1904;50.076;8.660;2023-08-24T12:53:44;39.70;;;2.93;;
3777;SDS011;1904;50.076;8.660;2023-08-24T12:56:20;27.90;;;3.00;;
3777;SDS011;1904;50.076;8.660;2023-08-24T13:01:38;32.73;;;3.13;;
3777;SDS011;1904;50.076;8.660;2023-08-24T13:04:08;26.80;;;2.93;;
3777;SDS011;1904;50.076;8.660;2023-08-24T13:06:38;29.70;;;2.90;;
3777;SDS011;1904;50.076;8.660;2023-08-24T13:09:08;28.30;;;3.07;;
3777;SDS011;1904;50.076;8.660;2023-08-24T13:14:20;25.80;;;2.97;;
3777;SDS011;1904;50.076;8.660;2023-08-24T13:16:56;27.57;;;3.10;;
3777;SDS011;1904;50.076;8.660;2023-08-24T13:19:26;30.33;;;3.17;;
3777;SDS011;1904;50.076;8.660;2023-08-24T13:22:08;31.00;;;3.10;;
3777;SDS011;1904;50.076;8.660;2023-08-24T13:24:50;31.87;;;3.30;;
3777;SDS011;1904;50.076;8.660;2023-08-24T13:27:16;28.73;;;3.97;;
3777;SDS011;1904;50.076;8.660;2023-08-24T13:32:40;33.60;;;3.47;;
3777;SDS011;1904;50.076;8.660;2023-08-24T13:37:52;27.90;;;3.20;;
3777;SDS011;1904;50.076;8.660;2023-08-24T13:40:18;28.67;;;3.13;;
3777;SDS011;1904;50.076;8.660;2023-08-24T13:42:50;27.47;;;3.27;;
3777;SDS011;1904;50.076;8.660;2023-08-24T13:45:20;31.83;;;3.43;;
3777;SDS011;1904;50.076;8.660;2023-08-24T13:47:46;30.33;;;2.93;;
3777;SDS011;1904;50.076;8.660;2023-08-24T13:50:12;30.00;;;3.57;;
3777;SDS011;1904;50.076;8.660;2023-08-24T13:52:50;28.40;;;3.27;;
3777;SDS011;1904;50.076;8.660;2023-08-24T13:55:20;28.77;;;3.30;;
3777;SDS011;1904;50.076;8.660;2023-08-24T13:57:50;27.27;;;3.20;;
3777;SDS011;1904;50.076;8.660;2023-08-24T14:00:20;27.90;;;3.40;;
3777;SDS011;1904;50.076;8.660;2023-08-24T14:02:50;29.50;;;3.50;;
3777;SDS011;1904;50.076;8.660;2023-08-24T14:05:16;30.87;;;4.00;;
3777;SDS011;1904;50.076;8.660;2023-08-24T14:10:44;30.20;;;3.30;;
3777;SDS011;1904;50.076;8.660;2023-08-24T14:13:20;32.43;;;3.30;;
3777;SDS011;1904;50.076;8.660;2023-08-24T14:15:49;33.27;;;4.00;;
3777;SDS011;1904;50.076;8.660;2023-08-24T14:18:20;29.17;;;3.70;;
3777;SDS011;1904;50.076;8.660;2023-08-24T14:26:22;33.43;;;3.50;;
3777;SDS011;1904;50.076;8.660;2023-08-24T14:31:50;29.80;;;3.50;;
3777;SDS011;1904;50.076;8.660;2023-08-24T14:34:20;29.57;;;3.30;;
3777;SDS011;1904;50.076;8.660;2023-08-24T14:36:50;31.87;;;3.87;;
3777;SDS011;1904;50.076;8.660;2023-08-24T14:39:20;31.73;;;3.70;;
3777;SDS011;1904;50.076;8.660;2023-08-24T14:41:51;30.90;;;3.20;;
3777;SDS011;1904;50.076;8.660;2023-08-24T14:44:20;36.63;;;4.17;;
3777;SDS011;1904;50.076;8.660;2023-08-24T14:46:50;30.23;;;4.03;;
3777;SDS011;1904;50.076;8.660;2023-08-24T14:49:20;29.50;;;3.90;;
3777;SDS011;1904;50.076;8.660;2023-08-24T14:51:50;31.07;;;3.87;;
3777;SDS011;1904;50.076;8.660;2023-08-24T14:54:17;30.93;;;3.80;;
3777;SDS011;1904;50.076;8.660;2023-08-24T14:56:44;31.53;;;4.30;;
3777;SDS011;1904;50.076;8.660;2023-08-24T14:59:11;33.87;;;4.00;;
3777;SDS011;1904;50.076;8.660;2023-08-24T15:01:38;33.67;;;4.10;;
3777;SDS011;1904;50.076;8.660;2023-08-24T15:04:04;33.17;;;4.10;;
3777;SDS011;1904;50.076;8.660;2023-08-24T15:09:32;36.47;;;4.07;;
3777;SDS011;1904;50.076;8.660;2023-08-24T15:12:03;37.97;;;4.20;;
3777;SDS011;1904;50.076;8.660;2023-08-24T15:17:32;36.67;;;5.50;;
3777;SDS011;1904;50.076;8.660;2023-08-24T15:22:46;34.37;;;5.70;;
3777;SDS011;1904;50.076;8.660;2023-08-24T15:25:14;36.00;;;4.97;;
3777;SDS011;1904;50.076;8.660;2023-08-24T15:27:44;32.37;;;4.67;;
3777;SDS011;1904;50.076;8.660;2023-08-24T15:30:10;35.83;;;5.20;;
3777;SDS011;1904;50.076;8.660;2023-08-24T15:32:38;35.53;;;5.37;;
3777;SDS011;1904;50.076;8.660;2023-08-24T15:35:14;36.27;;;5.30;;
3777;SDS011;1904;50.076;8.660;2023-08-24T15:37:44;36.00;;;5.40;;
3777;SDS011;1904;50.076;8.660;2023-08-24T15:40:14;37.23;;;6.13;;
3777;SDS011;1904;50.076;8.660;2023-08-24T15:45:29;37.13;;;5.80;;
3777;SDS011;1904;50.076;8.660;2023-08-24T15:47:55;33.73;;;4.83;;
3777;SDS011;1904;50.076;8.660;2023-08-24T15:50:27;35.20;;;5.47;;
3777;SDS011;1904;50.076;8.660;2023-08-24T15:52:57;35.50;;;5.87;;
3777;SDS011;1904;50.076;8.660;2023-08-24T15:55:32;43.93;;;5.40;;
3777;SDS011;1904;50.076;8.660;2023-08-24T15:58:08;36.17;;;5.27;;
3777;SDS011;1904;50.076;8.660;2023-08-24T16:00:38;35.83;;;5.33;;
3777;SDS011;1904;50.076;8.660;2023-08-24T16:03:14;33.43;;;4.93;;
3777;SDS011;1904;50.076;8.660;2023-08-24T16:05:54;37.07;;;5.57;;
3777;SDS011;1904;50.076;8.660;2023-08-24T16:11:16;40.70;;;6.20;;
3777;SDS011;1904;50.076;8.660;2023-08-24T16:13:52;48.87;;;7.07;;
3777;SDS011;1904;50.076;8.660;2023-08-24T16:16:18;41.53;;;5.50;;
3777;SDS011;1904;50.076;8.660;2023-08-24T16:18:50;32.40;;;4.97;;
3777;SDS011;1904;50.076;8.660;2023-08-24T16:21:21;38.07;;;6.00;;
3777;SDS011;1904;50.076;8.660;2023-08-24T16:23:50;39.73;;;5.40;;
3777;SDS011;1904;50.076;8.660;2023-08-24T16:26:21;35.30;;;5.43;;
3777;SDS011;1904;50.076;8.660;2023-08-24T16:28:46;33.43;;;5.30;;
3777;SDS011;1904;50.076;8.660;2023-08-24T16:31:32;39.20;;;5.20;;
3777;SDS011;1904;50.076;8.660;2023-08-24T16:36:44;40.87;;;4.90;;
3777;SDS011;1904;50.076;8.660;2023-08-24T16:39:21;34.00;;;5.07;;
3777;SDS011;1904;50.076;8.660;2023-08-24T16:41:50;32.80;;;5.00;;
3777;SDS011;1904;50.076;8.660;2023-08-24T16:44:27;39.93;;;4.90;;
3777;SDS011;1904;50.076;8.660;2023-08-24T16:46:52;33.80;;;5.10;;
3777;SDS011;1904;50.076;8.660;2023-08-24T16:49:18;32.83;;;4.60;;
3777;SDS011;1904;50.076;8.660;2023-08-24T16:51:45;34.10;;;5.63;;
3777;SDS011;1904;50.076;8.660;2023-08-24T16:54:11;37.33;;;5.40;;
3777;SDS011;1904;50.076;8.660;2023-08-24T16:56:41;39.20;;;5.20;;
3777;SDS011;1904;50.076;8.660;2023-08-24T16:59:07;40.50;;;6.27;;
3777;SDS011;1904;50.076;8.660;2023-08-24T17:01:39;34.83;;;5.40;;
3777;SDS011;1904;50.076;8.660;2023-08-24T17:04:04;39.30;;;7.20;;
3777;SDS011;1904;50.076;8.660;2023-08-24T17:06:30;42.63;;;5.57;;
3777;SDS011;1904;50.076;8.660;2023-08-24T17:08:56;34.07;;;5.33;;
3777;SDS011;1904;50.076;8.660;2023-08-24T17:11:26;35.80;;;4.73;;
3777;SDS011;1904;50.076;8.660;2023-08-24T17:14:09;39.20;;;5.80;;
3777;SDS011;1904;50.076;8.660;2023-08-24T17:16:34;35.20;;;5.37;;
3777;SDS011;1904;50.076;8.660;2023-08-24T17:19:08;37.47;;;6.10;;
3777;SDS011;1904;50.076;8.660;2023-08-24T17:21:39;40.30;;;5.37;;
3777;SDS011;1904;50.076;8.660;2023-08-24T17:24:04;37.30;;;6.37;;
3777;SDS011;1904;50.076;8.660;2023-08-24T17:26:32;40.77;;;6.60;;
3777;SDS011;1904;50.076;8.660;2023-08-24T17:29:03;47.47;;;6.70;;
3777;SDS011;1904;50.076;8.660;2023-08-24T17:34:20;38.93;;;5.87;;
3777;SDS011;1904;50.076;8.660;2023-08-24T17:36:50;41.73;;;6.70;;
3777;SDS011;1904;50.076;8.660;2023-08-24T17:39:32;34.80;;;5.60;;
3777;SDS011;1904;50.076;8.660;2023-08-24T17:44:50;41.40;;;6.37;;
3777;SDS011;1904;50.076;8.660;2023-08-24T17:47:21;39.87;;;7.30;;
3777;SDS011;1904;50.076;8.660;2023-08-24T17:49:51;43.87;;;7.67;;
3777;SDS011;1904;50.076;8.660;2023-08-24T17:52:21;46.83;;;7.43;;
3777;SDS011;1904;50.076;8.660;2023-08-24T17:57:56;49.00;;;9.67;;
3777;SDS011;1904;50.076;8.660;2023-08-24T18:03:17;48.03;;;8.73;;
3777;SDS011;1904;50.076;8.660;2023-08-24T18:18:10;53.57;;;9.97;;
3777;SDS011;1904;50.076;8.660;2023-08-24T18:20:45;48.13;;;9.77;;
3777;SDS011;1904;50.076;8.660;2023-08-24T18:23:21;51.17;;;9.60;;
3777;SDS011;1904;50.076;8.660;2023-08-24T18:29:04;50.57;;;9.77;;
3777;SDS011;1904;50.076;8.660;2023-08-24T18:34:46;52.70;;;10.00;;
3777;SDS011;1904;50.076;8.660;2023-08-24T18:37:11;51.87;;;9.67;;
3777;SDS011;1904;50.076;8.660;2023-08-24T18:39:39;50.57;;;10.00;;
3777;SDS011;1904;50.076;8.660;2023-08-24T18:42:09;53.37;;;10.63;;
3777;SDS011;1904;50.076;8.660;2023-08-24T18:44:44;50.57;;;10.87;;
3777;SDS011;1904;50.076;8.660;2023-08-24T18:47:21;49.40;;;10.40;;
3777;SDS011;1904;50.076;8.660;2023-08-24T18:52:38;48.97;;;10.10;;
3777;SDS011;1904;50.076;8.660;2023-08-24T18:57:52;61.43;;;10.17;;
3777;SDS011;1904;50.076;8.660;2023-08-24T19:00:21;54.33;;;11.10;;
3777;SDS011;1904;50.076;8.660;2023-08-24T19:03:03;54.03;;;11.00;;
3777;SDS011;1904;50.076;8.660;2023-08-24T19:05:45;51.60;;;10.73;;
3777;SDS011;1904;50.076;8.660;2023-08-24T19:08:15;54.37;;;12.40;;
3777;SDS011;1904;50.076;8.660;2023-08-24T19:10:57;57.93;;;11.30;;
3777;SDS011;1904;50.076;8.660;2023-08-24T19:13:39;48.57;;;11.10;;
3777;SDS011;1904;50.076;8.660;2023-08-24T19:16:14;49.67;;;11.90;;
3777;SDS011;1904;50.076;8.660;2023-08-24T19:18:45;55.83;;;12.47;;
3777;SDS011;1904;50.076;8.660;2023-08-24T19:21:15;56.60;;;12.37;;
3777;SDS011;1904;50.076;8.660;2023-08-24T19:23:40;63.63;;;12.00;;
3777;SDS011;1904;50.076;8.660;2023-08-24T19:26:06;53.20;;;11.13;;
3777;SDS011;1904;50.076;8.660;2023-08-24T19:28:32;54.73;;;11.87;;
3777;SDS011;1904;50.076;8.660;2023-08-24T19:30:58;55.50;;;12.70;;
3777;SDS011;1904;50.076;8.660;2023-08-24T19:33:27;60.93;;;13.00;;
3777;SDS011;1904;50.076;8.660;2023-08-24T19:35:52;58.17;;;11.90;;
3777;SDS011;1904;50.076;8.660;2023-08-24T19:38:21;52.57;;;11.93;;
3777;SDS011;1904;50.076;8.660;2023-08-24T19:43:51;60.93;;;13.50;;
3777;SDS011;1904;50.076;8.660;2023-08-24T19:46:21;51.40;;;13.73;;
3777;SDS011;1904;50.076;8.660;2023-08-24T19:48:46;54.10;;;14.00;;
3777;SDS011;1904;50.076;8.660;2023-08-24T19:51:12;56.10;;;13.30;;
3777;SDS011;1904;50.076;8.660;2023-08-24T19:53:45;55.43;;;14.67;;
3777;SDS011;1904;50.076;8.660;2023-08-24T19:56:15;55.47;;;14.07;;
3777;SDS011;1904;50.076;8.660;2023-08-24T19:58:57;56.53;;;14.30;;
3777;SDS011;1904;50.076;8.660;2023-08-24T20:01:26;57.53;;;14.20;;
3777;SDS011;1904;50.076;8.660;2023-08-24T20:06:45;55.97;;;13.53;;
3777;SDS011;1904;50.076;8.660;2023-08-24T20:09:15;57.17;;;14.73;;
3777;SDS011;1904;50.076;8.660;2023-08-24T20:11:45;58.50;;;14.60;;
3777;SDS011;1904;50.076;8.660;2023-08-24T20:17:21;63.13;;;14.27;;
3777;SDS011;1904;50.076;8.660;2023-08-24T20:19:52;53.63;;;13.63;;